createdAt,value
2023-01-27T00:01:06.561Z,14.73
2023-01-27T00:03:34.602Z,17.47
2023-01-27T00:06:04.751Z,15.23
2023-01-27T00:08:32.713Z,17.03
2023-01-27T00:11:19.807Z,13.97
2023-01-27T00:13:47.638Z,13.43
2023-01-27T00:16:15.646Z,16.30
2023-01-27T00:18:43.517Z,16.90
2023-01-27T00:21:29.268Z,13.23
2023-01-27T00:24:14.910Z,16.27
2023-01-27T00:26:44.144Z,16.97
2023-01-27T00:29:12.067Z,15.40
2023-01-27T00:31:57.484Z,16.33
2023-01-27T00:34:25.346Z,13.63
2023-01-27T00:36:53.217Z,13.43
2023-01-27T00:39:20.996Z,16.47
2023-01-27T00:41:50.144Z,19.87
2023-01-27T00:44:18.123Z,16.90
2023-01-27T00:46:46.051Z,14.77
2023-01-27T00:49:13.898Z,15.60
2023-01-27T00:51:41.877Z,16.33
2023-01-27T00:54:10.110Z,14.80
2023-01-27T00:56:38.238Z,17.83
2023-01-27T00:59:07.667Z,20.43
2023-01-27T01:01:36.001Z,14.47
2023-01-27T01:04:04.097Z,15.33
2023-01-27T01:06:32.096Z,18.57
2023-01-27T01:09:00.113Z,18.03
2023-01-27T01:11:28.370Z,13.57
2023-01-27T01:13:56.796Z,16.07
2023-01-27T01:16:26.659Z,17.67
2023-01-27T01:18:54.926Z,17.83
2023-01-27T01:21:23.032Z,14.73
2023-01-27T01:23:51.014Z,15.97
2023-01-27T01:26:19.531Z,16.33
2023-01-27T01:28:48.136Z,18.33
2023-01-27T01:31:18.780Z,15.13
2023-01-27T01:33:49.046Z,18.10
2023-01-27T01:36:20.706Z,14.97
2023-01-27T01:38:49.164Z,17.53
2023-01-27T01:41:20.005Z,15.73
2023-01-27T01:43:48.439Z,15.90
2023-01-27T01:46:16.697Z,18.60
2023-01-27T01:48:49.355Z,21.13
2023-01-27T01:51:21.483Z,19.23
2023-01-27T01:53:54.143Z,17.47
2023-01-27T01:56:26.952Z,17.50
2023-01-27T01:58:56.861Z,13.40
2023-01-27T02:01:24.743Z,18.70
2023-01-27T02:03:57.785Z,16.30
2023-01-27T02:06:26.214Z,14.27
2023-01-27T02:08:55.559Z,15.47
2023-01-27T02:11:23.500Z,16.40
2023-01-27T02:13:52.616Z,14.70
2023-01-27T02:16:20.486Z,15.57
2023-01-27T02:18:49.689Z,16.30
2023-01-27T02:21:19.155Z,14.83
2023-01-27T02:23:53.551Z,13.63
2023-01-27T02:26:26.780Z,15.07
2023-01-27T02:28:59.594Z,12.43
2023-01-27T02:31:27.759Z,14.13
2023-01-27T02:33:59.179Z,16.23
2023-01-27T02:36:30.732Z,14.60
2023-01-27T02:39:00.567Z,15.57
2023-01-27T02:41:35.249Z,16.10
2023-01-27T02:44:03.082Z,20.73
2023-01-27T02:46:31.104Z,14.83
2023-01-27T02:48:59.008Z,16.90
2023-01-27T02:51:26.896Z,17.70
2023-01-27T02:53:54.858Z,19.33
2023-01-27T02:56:23.597Z,15.17
2023-01-27T02:58:52.745Z,13.73
2023-01-27T03:01:20.838Z,16.67
2023-01-27T03:03:48.742Z,16.97
2023-01-27T03:06:17.103Z,15.17
2023-01-27T03:08:45.374Z,14.27
2023-01-27T03:11:13.582Z,15.20
2023-01-27T03:13:41.676Z,16.53
2023-01-27T03:16:30.334Z,12.63
2023-01-27T03:18:58.138Z,15.80
2023-01-27T03:21:26.047Z,14.77
2023-01-27T03:23:53.906Z,15.30
2023-01-27T03:26:21.698Z,18.77
2023-01-27T03:29:09.520Z,15.87
2023-01-27T03:31:38.784Z,16.07
2023-01-27T03:34:06.655Z,16.27
2023-01-27T03:36:52.398Z,17.93
2023-01-27T03:39:37.841Z,16.07
2023-01-27T03:42:24.418Z,15.20
2023-01-27T03:45:10.055Z,15.83
2023-01-27T03:47:39.341Z,15.23
2023-01-27T03:50:11.363Z,16.23
2023-01-27T03:52:39.302Z,16.97
2023-01-27T03:55:09.500Z,15.90
2023-01-27T03:57:38.127Z,13.80
2023-01-27T04:00:06.792Z,15.43
2023-01-27T04:02:52.482Z,16.37
2023-01-27T04:05:39.119Z,19.13
2023-01-27T04:08:07.350Z,17.10
2023-01-27T04:10:35.156Z,16.00
2023-01-27T04:13:01.965Z,17.67
2023-01-27T04:15:29.745Z,15.07
2023-01-27T04:17:57.510Z,15.50
2023-01-27T04:20:26.696Z,16.00
2023-01-27T04:22:54.483Z,16.87
2023-01-27T04:25:22.286Z,18.50
2023-01-27T04:27:50.069Z,16.00
2023-01-27T04:30:18.456Z,16.50
2023-01-27T04:32:46.244Z,17.23
2023-01-27T04:35:14.715Z,17.83
2023-01-27T04:37:44.157Z,14.90
2023-01-27T04:40:13.319Z,19.60
2023-01-27T04:42:41.133Z,15.93
2023-01-27T04:45:10.282Z,16.17
2023-01-27T04:47:38.065Z,17.63
2023-01-27T04:50:06.728Z,18.73
2023-01-27T04:52:34.554Z,22.77
2023-01-27T04:55:03.757Z,22.07
2023-01-27T04:57:31.555Z,19.47
2023-01-27T04:59:59.369Z,16.20
2023-01-27T05:02:27.139Z,28.60
2023-01-27T05:04:54.909Z,18.70
2023-01-27T05:07:22.794Z,18.87
2023-01-27T05:09:50.755Z,19.07
2023-01-27T05:12:19.849Z,19.00
2023-01-27T05:14:47.694Z,16.37
2023-01-27T05:17:15.791Z,16.50
2023-01-27T05:19:43.584Z,17.60
2023-01-27T05:22:11.962Z,18.20
2023-01-27T05:24:39.913Z,17.93
2023-01-27T05:27:07.839Z,14.57
2023-01-27T05:29:36.973Z,17.83
2023-01-27T05:32:05.026Z,17.63
2023-01-27T05:34:32.922Z,20.10
2023-01-27T05:37:00.700Z,17.27
2023-01-27T05:39:28.504Z,17.57
2023-01-27T05:41:56.287Z,12.77
2023-01-27T05:44:24.278Z,13.80
2023-01-27T05:46:53.441Z,17.83
2023-01-27T05:49:21.387Z,18.37
2023-01-27T05:51:49.200Z,15.50
2023-01-27T05:54:17.010Z,17.53
2023-01-27T05:56:44.823Z,17.93
2023-01-27T05:59:13.011Z,18.17
2023-01-27T06:01:40.999Z,17.50
2023-01-27T06:04:11.449Z,17.00
2023-01-27T06:06:39.231Z,16.03
2023-01-27T06:09:07.019Z,21.50
2023-01-27T06:11:34.805Z,17.90
2023-01-27T06:14:02.672Z,21.13
2023-01-27T06:16:30.571Z,20.13
2023-01-27T06:18:58.773Z,19.73
2023-01-27T06:21:27.968Z,19.27
2023-01-27T06:23:55.895Z,24.13
2023-01-27T06:26:23.759Z,23.07
2023-01-27T06:28:51.544Z,17.97
2023-01-27T06:31:21.869Z,16.90
2023-01-27T06:33:50.240Z,19.13
2023-01-27T06:36:20.823Z,15.83
2023-01-27T06:38:50.572Z,17.00
2023-01-27T06:41:19.020Z,17.13
2023-01-27T06:43:47.198Z,22.37
2023-01-27T06:46:15.693Z,13.90
2023-01-27T06:48:43.538Z,14.80
2023-01-27T06:51:11.616Z,20.60
2023-01-27T06:53:39.440Z,22.87
2023-01-27T06:56:09.329Z,16.63
2023-01-27T06:58:37.090Z,19.93
2023-01-27T07:01:06.477Z,27.30
2023-01-27T07:06:01.255Z,19.63
2023-01-27T07:08:29.037Z,18.33
2023-01-27T07:10:56.957Z,22.27
2023-01-27T07:13:26.094Z,22.50
2023-01-27T07:15:57.132Z,18.20
2023-01-27T07:18:25.022Z,20.03
2023-01-27T07:20:52.917Z,19.43
2023-01-27T07:23:20.783Z,18.23
2023-01-27T07:25:48.769Z,23.57
2023-01-27T07:28:16.570Z,19.30
2023-01-27T07:30:45.714Z,22.10
2023-01-27T07:33:15.309Z,25.97
2023-01-27T07:35:43.633Z,21.33
2023-01-27T07:38:11.919Z,20.77
2023-01-27T07:40:39.761Z,17.93
2023-01-27T07:43:07.844Z,20.20
2023-01-27T07:45:35.932Z,17.53
2023-01-27T07:48:06.659Z,22.30
2023-01-27T07:50:34.508Z,16.60
2023-01-27T07:53:02.979Z,23.40
2023-01-27T07:55:31.628Z,27.43
2023-01-27T07:57:59.598Z,22.57
2023-01-27T08:00:28.268Z,20.10
2023-01-27T08:02:57.620Z,19.23
2023-01-27T08:05:27.460Z,23.23
2023-01-27T08:07:58.817Z,17.90
2023-01-27T08:10:27.353Z,19.73
2023-01-27T08:12:55.251Z,22.77
2023-01-27T08:15:23.193Z,20.30
2023-01-27T08:17:55.379Z,19.73
2023-01-27T08:20:23.816Z,18.97
2023-01-27T08:22:52.952Z,24.73
2023-01-27T08:25:21.112Z,25.03
2023-01-27T08:27:51.510Z,21.50
2023-01-27T08:30:20.460Z,27.50
2023-01-27T08:32:48.757Z,29.27
2023-01-27T08:35:16.617Z,21.13
2023-01-27T08:37:45.154Z,17.60
2023-01-27T08:40:15.829Z,19.37
2023-01-27T08:42:43.699Z,21.37
2023-01-27T08:45:11.733Z,18.10
2023-01-27T08:47:39.606Z,17.80
2023-01-27T08:50:08.337Z,23.47
2023-01-27T08:52:36.222Z,24.27
2023-01-27T08:55:04.205Z,21.60
2023-01-27T08:57:35.255Z,18.97
2023-01-27T09:00:06.997Z,23.03
2023-01-27T09:02:35.278Z,19.93
2023-01-27T09:05:03.217Z,23.53
2023-01-27T09:07:31.052Z,21.77
2023-01-27T09:10:13.135Z,21.67
2023-01-27T09:12:48.013Z,18.30
2023-01-27T09:15:16.184Z,17.40
2023-01-27T09:17:44.782Z,17.03
2023-01-27T09:20:13.791Z,18.97
2023-01-27T09:22:42.937Z,18.03
2023-01-27T09:25:14.689Z,17.40
2023-01-27T09:27:42.581Z,17.53
2023-01-27T09:30:14.333Z,19.30
2023-01-27T09:32:42.877Z,15.87
2023-01-27T09:35:11.783Z,22.17
2023-01-27T09:37:45.680Z,17.80
2023-01-27T09:40:22.944Z,15.23
2023-01-27T09:43:20.142Z,17.43
2023-01-27T09:46:10.937Z,17.90
2023-01-27T09:49:04.805Z,18.17
2023-01-27T09:51:43.519Z,21.17
2023-01-27T09:54:24.521Z,18.37
2023-01-27T09:56:59.750Z,17.97
2023-01-27T09:59:48.025Z,20.20
2023-01-27T10:02:31.256Z,19.57
2023-01-27T10:05:29.475Z,17.73
2023-01-27T10:08:18.381Z,16.33
2023-01-27T10:11:09.588Z,16.50
2023-01-27T10:13:48.334Z,18.70
2023-01-27T10:16:34.551Z,18.07
2023-01-27T10:19:14.638Z,15.80
2023-01-27T10:21:50.623Z,16.90
2023-01-27T10:24:33.246Z,15.43
2023-01-27T10:27:08.916Z,14.17
2023-01-27T10:29:45.298Z,14.90
2023-01-27T10:32:26.618Z,13.03
2023-01-27T10:35:08.763Z,15.13
2023-01-27T10:37:47.492Z,14.67
2023-01-27T10:40:22.420Z,14.70
2023-01-27T10:43:02.025Z,17.67
2023-01-27T10:45:37.588Z,14.93
2023-01-27T10:48:20.860Z,12.33
2023-01-27T10:50:56.902Z,15.43
2023-01-27T10:53:33.299Z,16.77
2023-01-27T10:56:07.107Z,16.37
2023-01-27T10:58:48.895Z,14.00
2023-01-27T11:01:22.279Z,13.63
2023-01-27T11:03:56.601Z,13.90
2023-01-27T11:06:29.514Z,11.57
2023-01-27T11:09:08.412Z,16.03
2023-01-27T11:11:46.176Z,18.70
2023-01-27T11:14:22.540Z,14.20
2023-01-27T11:16:52.987Z,14.27
2023-01-27T11:19:31.869Z,16.60
2023-01-27T11:22:08.043Z,15.23
2023-01-27T11:24:45.108Z,18.17
2023-01-27T11:27:21.183Z,10.13
2023-01-27T11:29:55.656Z,24.67
2023-01-27T11:32:35.207Z,14.03
2023-01-27T11:35:05.729Z,20.50
2023-01-27T11:37:38.383Z,16.80
2023-01-27T11:40:15.777Z,17.17
2023-01-27T11:42:44.316Z,16.97
2023-01-27T11:45:16.400Z,17.30
2023-01-27T11:47:46.600Z,18.47
2023-01-27T11:50:17.122Z,10.40
2023-01-27T11:52:49.429Z,19.90
2023-01-27T11:55:20.018Z,18.47
2023-01-27T11:57:52.124Z,17.33
2023-01-27T12:00:25.166Z,17.80
2023-01-27T12:03:00.433Z,22.37
2023-01-27T12:05:32.385Z,20.43
2023-01-27T12:08:03.312Z,15.40
2023-01-27T12:10:32.902Z,16.77
2023-01-27T12:13:08.356Z,15.27
2023-01-27T12:15:37.158Z,17.17
2023-01-27T12:18:14.664Z,16.27
2023-01-27T12:20:45.034Z,16.47
2023-01-27T12:23:26.366Z,17.27
2023-01-27T12:25:56.505Z,14.83
2023-01-27T12:28:30.921Z,17.20
2023-01-27T12:31:05.388Z,21.20
2023-01-27T12:33:35.275Z,16.17
2023-01-27T12:36:15.672Z,16.80
2023-01-27T12:38:52.671Z,19.30
2023-01-27T12:41:26.079Z,19.53
2023-01-27T12:44:00.274Z,18.50
2023-01-27T12:46:29.748Z,21.03
2023-01-27T12:49:03.684Z,17.17
2023-01-27T12:51:41.614Z,22.40
2023-01-27T12:54:21.758Z,24.53
2023-01-27T12:56:50.062Z,23.83
2023-01-27T12:59:21.350Z,25.43
2023-01-27T13:02:00.613Z,23.17
2023-01-27T13:04:28.969Z,26.20
2023-01-27T13:07:04.789Z,21.40
2023-01-27T13:09:37.320Z,26.37
2023-01-27T13:12:17.522Z,27.80
2023-01-27T13:14:45.419Z,26.77
2023-01-27T13:17:31.876Z,25.90
2023-01-27T13:20:04.470Z,27.57
2023-01-27T13:22:41.211Z,25.57
2023-01-27T13:25:18.475Z,28.07
2023-01-27T13:27:47.547Z,27.53
2023-01-27T13:30:23.572Z,30.50
2023-01-27T13:32:55.501Z,27.83
2023-01-27T13:35:27.283Z,29.87
2023-01-27T13:38:03.110Z,27.57
2023-01-27T13:40:38.041Z,22.70
2023-01-27T13:43:11.632Z,21.40
2023-01-27T13:45:43.704Z,24.07
2023-01-27T13:48:17.940Z,24.83
2023-01-27T13:50:48.554Z,26.43
2023-01-27T13:53:19.305Z,27.23
2023-01-27T13:56:02.851Z,26.03
2023-01-27T13:58:42.911Z,33.77
2023-01-27T14:01:23.934Z,32.30
2023-01-27T14:04:28.583Z,25.47
2023-01-27T14:07:14.389Z,25.60
2023-01-27T14:09:53.329Z,26.70
2023-01-27T14:12:32.675Z,19.50
2023-01-27T14:15:13.876Z,25.40
2023-01-27T14:17:46.971Z,28.10
2023-01-27T14:20:30.896Z,23.63
2023-01-27T14:23:32.357Z,21.80
2023-01-27T14:26:11.137Z,23.37
2023-01-27T14:28:53.309Z,24.07
2023-01-27T14:31:24.523Z,18.17
2023-01-27T14:34:03.021Z,20.93
2023-01-27T14:36:38.769Z,21.73
2023-01-27T14:39:17.988Z,23.20
2023-01-27T14:41:53.857Z,17.67
2023-01-27T14:44:43.585Z,18.63
2023-01-27T14:47:18.055Z,15.50
2023-01-27T14:49:59.557Z,17.77
2023-01-27T14:52:37.435Z,19.67
2023-01-27T14:55:22.259Z,22.93
2023-01-27T14:57:58.028Z,19.90
2023-01-27T15:00:43.539Z,21.63
2023-01-27T15:03:41.965Z,17.57
2023-01-27T15:06:16.653Z,22.27
2023-01-27T15:08:53.823Z,20.23
2023-01-27T15:11:41.749Z,26.27
2023-01-27T15:14:30.605Z,18.07
2023-01-27T15:17:15.129Z,18.50
2023-01-27T15:20:01.716Z,22.27
2023-01-27T15:22:53.507Z,19.10
2023-01-27T15:25:34.847Z,22.73
2023-01-27T15:28:03.655Z,21.27
2023-01-27T15:30:34.520Z,21.43
2023-01-27T15:33:03.807Z,19.03
2023-01-27T15:35:37.968Z,19.97
2023-01-27T15:38:20.660Z,20.10
2023-01-27T15:41:01.678Z,23.43
2023-01-27T15:43:31.140Z,19.73
2023-01-27T15:46:18.053Z,25.60
2023-01-27T15:48:48.511Z,21.50
2023-01-27T15:51:19.312Z,23.17
2023-01-27T15:53:51.480Z,18.43
2023-01-27T15:56:19.514Z,21.00
2023-01-27T15:58:54.697Z,25.27
2023-01-27T16:01:27.802Z,22.27
2023-01-27T16:04:08.805Z,22.80
2023-01-27T16:06:37.145Z,23.30
2023-01-27T16:09:08.827Z,23.33
2023-01-27T16:11:42.337Z,21.47
2023-01-27T16:14:37.936Z,20.50
2023-01-27T16:17:18.964Z,18.70
2023-01-27T16:19:58.463Z,21.13
2023-01-27T16:22:28.657Z,18.40
2023-01-27T16:25:00.896Z,20.20
2023-01-27T16:27:43.445Z,19.13
2023-01-27T16:30:20.256Z,18.80
2023-01-27T16:33:06.241Z,20.40
2023-01-27T16:35:43.756Z,23.03
2023-01-27T16:38:20.998Z,20.47
2023-01-27T16:40:52.116Z,24.87
2023-01-27T16:43:23.412Z,20.57
2023-01-27T16:45:53.541Z,23.57
2023-01-27T16:48:32.172Z,24.63
2023-01-27T16:51:13.396Z,20.57
2023-01-27T16:53:46.103Z,21.73
2023-01-27T16:56:21.689Z,26.80
2023-01-27T16:58:51.101Z,24.27
2023-01-27T17:01:22.694Z,23.43
2023-01-27T17:03:51.147Z,21.50
2023-01-27T17:06:22.342Z,28.43
2023-01-27T17:08:50.782Z,26.40
2023-01-27T17:11:23.588Z,24.57
2023-01-27T17:13:57.158Z,27.87
2023-01-27T17:16:27.244Z,28.30
2023-01-27T17:18:57.812Z,24.70
2023-01-27T17:21:34.094Z,27.40
2023-01-27T17:24:05.583Z,28.60
2023-01-27T17:26:35.288Z,25.27
2023-01-27T17:29:03.513Z,34.57
2023-01-27T17:31:35.479Z,24.53
2023-01-27T17:34:03.486Z,27.00
2023-01-27T17:36:32.696Z,28.20
2023-01-27T17:39:01.523Z,27.97
2023-01-27T17:41:34.769Z,37.73
2023-01-27T17:44:04.202Z,29.10
2023-01-27T17:46:35.003Z,28.13
2023-01-27T17:49:05.944Z,32.23
2023-01-27T17:51:41.622Z,29.57
2023-01-27T17:54:21.276Z,21.23
2023-01-27T17:56:52.195Z,32.17
2023-01-27T17:59:23.126Z,32.70
2023-01-27T18:01:53.140Z,32.93
2023-01-27T18:04:22.617Z,33.60
2023-01-27T18:06:52.598Z,31.13
2023-01-27T18:09:25.418Z,37.90
2023-01-27T18:11:56.439Z,41.63
2023-01-27T18:14:24.375Z,39.00
2023-01-27T18:17:03.333Z,40.87
2023-01-27T18:19:31.661Z,35.73
2023-01-27T18:22:11.809Z,37.50
2023-01-27T18:24:41.027Z,34.60
2023-01-27T18:27:24.511Z,35.33
2023-01-27T18:29:55.643Z,31.83
2023-01-27T18:32:25.472Z,40.60
2023-01-27T18:34:55.479Z,23.43
2023-01-27T18:37:29.039Z,27.80
2023-01-27T18:39:57.590Z,34.40
2023-01-27T18:42:26.242Z,38.93
2023-01-27T18:44:54.469Z,35.77
2023-01-27T18:47:31.107Z,31.70
2023-01-27T18:50:13.705Z,37.30
2023-01-27T18:52:43.213Z,26.83
2023-01-27T18:55:17.123Z,34.87
2023-01-27T18:57:46.078Z,33.70
2023-01-27T19:00:16.416Z,36.70
2023-01-27T19:02:46.753Z,28.63
2023-01-27T19:05:21.004Z,29.13
2023-01-27T19:07:50.869Z,38.10
2023-01-27T19:10:20.802Z,31.70
2023-01-27T19:12:48.603Z,35.80
2023-01-27T19:15:16.929Z,36.77
2023-01-27T19:17:46.547Z,33.17
2023-01-27T19:20:16.708Z,38.50
2023-01-27T19:22:44.643Z,32.27
2023-01-27T19:25:14.382Z,34.43
2023-01-27T19:27:44.381Z,29.93
2023-01-27T19:30:36.138Z,32.73
2023-01-27T19:33:04.500Z,31.33
2023-01-27T19:35:32.768Z,25.77
2023-01-27T19:38:03.516Z,22.37
2023-01-27T19:40:32.887Z,30.67
2023-01-27T19:43:00.857Z,24.53
2023-01-27T19:45:29.088Z,28.23
2023-01-27T19:47:59.646Z,23.70
2023-01-27T19:50:30.341Z,25.83
2023-01-27T19:52:58.664Z,27.70
2023-01-27T19:55:26.735Z,30.10
2023-01-27T19:57:55.852Z,33.63
2023-01-27T20:00:27.404Z,29.23
2023-01-27T20:02:55.800Z,36.47
2023-01-27T20:05:24.455Z,37.77
2023-01-27T20:07:53.556Z,30.30
2023-01-27T20:10:23.556Z,26.67
2023-01-27T20:12:57.789Z,24.03
2023-01-27T20:15:27.070Z,25.77
2023-01-27T20:17:55.464Z,24.07
2023-01-27T20:20:24.801Z,26.50
2023-01-27T20:22:53.107Z,27.77
2023-01-27T20:25:23.062Z,29.43
2023-01-27T20:27:53.573Z,22.80
2023-01-27T20:30:24.392Z,28.37
2023-01-27T20:32:55.030Z,24.93
2023-01-27T20:35:23.906Z,21.97
2023-01-27T20:37:53.275Z,22.10
2023-01-27T20:40:23.306Z,28.20
2023-01-27T20:42:51.783Z,27.20
2023-01-27T20:45:20.389Z,26.87
2023-01-27T20:47:51.296Z,28.70
2023-01-27T20:50:19.572Z,24.43
2023-01-27T20:52:48.332Z,25.63
2023-01-27T20:55:17.844Z,26.27
2023-01-27T20:57:45.970Z,22.43
2023-01-27T21:00:17.768Z,20.60
2023-01-27T21:02:45.637Z,24.10
2023-01-27T21:05:15.579Z,22.97
2023-01-27T21:07:43.824Z,26.53
2023-01-27T21:10:12.654Z,22.43
2023-01-27T21:12:40.895Z,26.20
2023-01-27T21:15:10.399Z,23.93
2023-01-27T21:17:38.395Z,28.33
2023-01-27T21:20:07.417Z,22.70
2023-01-27T21:22:36.654Z,22.07
2023-01-27T21:25:04.853Z,22.60
2023-01-27T21:27:32.815Z,25.50
2023-01-27T21:30:00.619Z,23.83
2023-01-27T21:32:28.413Z,26.50
2023-01-27T21:34:58.580Z,23.67
2023-01-27T21:37:26.543Z,20.73
2023-01-27T21:39:55.800Z,23.33
2023-01-27T21:42:40.939Z,24.57
2023-01-27T21:45:15.060Z,27.90
2023-01-27T21:47:43.266Z,22.77
2023-01-27T21:50:11.972Z,25.87
2023-01-27T21:52:42.215Z,26.53
2023-01-27T21:55:13.968Z,23.93
2023-01-27T21:57:43.277Z,26.57
2023-01-27T22:00:14.948Z,28.30
2023-01-27T22:02:43.679Z,24.97
2023-01-27T22:05:13.150Z,24.07
2023-01-27T22:07:41.772Z,29.97
2023-01-27T22:10:14.631Z,28.23
2023-01-27T22:12:42.513Z,31.40
2023-01-27T22:15:11.885Z,28.00
2023-01-27T22:17:39.974Z,24.40
2023-01-27T22:20:09.391Z,27.03
2023-01-27T22:22:37.309Z,19.93
2023-01-27T22:25:05.625Z,22.60
2023-01-27T22:27:34.993Z,24.17
2023-01-27T22:30:02.918Z,25.87
2023-01-27T22:32:30.865Z,22.33
2023-01-27T22:34:58.688Z,26.27
2023-01-27T22:37:26.509Z,21.40
2023-01-27T22:39:54.413Z,23.67
2023-01-27T22:42:22.444Z,24.70
2023-01-27T22:44:52.258Z,22.47
2023-01-27T22:47:20.320Z,24.23
2023-01-27T22:49:48.239Z,24.70
2023-01-27T22:52:16.607Z,22.47
2023-01-27T22:54:44.601Z,25.50
2023-01-27T22:57:12.389Z,24.80
2023-01-27T22:59:40.246Z,29.17
2023-01-27T23:02:09.482Z,26.07
2023-01-27T23:04:37.283Z,20.33
2023-01-27T23:07:05.078Z,22.40
2023-01-27T23:09:33.192Z,24.67
2023-01-27T23:12:01.047Z,23.43
2023-01-27T23:14:28.910Z,25.50
2023-01-27T23:16:58.498Z,22.13
2023-01-27T23:19:27.725Z,25.77
2023-01-27T23:21:55.551Z,23.83
2023-01-27T23:24:23.410Z,22.97
2023-01-27T23:26:51.309Z,23.13
2023-01-27T23:29:24.655Z,26.07
2023-01-27T23:31:53.637Z,24.50
2023-01-27T23:34:21.668Z,24.00
2023-01-27T23:36:50.966Z,23.63
2023-01-27T23:39:18.882Z,25.27
2023-01-27T23:41:46.691Z,24.77
2023-01-27T23:44:14.733Z,22.07
2023-01-27T23:46:43.328Z,24.37
2023-01-27T23:49:12.352Z,22.67
2023-01-27T23:51:40.343Z,25.20
2023-01-27T23:54:09.515Z,21.53
2023-01-27T23:56:37.488Z,25.03
2023-01-27T23:59:05.295Z,31.23
